Time;durP1;ratioP1;P1;durP2;ratioP2;P2;SDS_P1;SDS_P2;PMS_P1;PMS_P2;Temp;Humidity;BMP_temperature;BMP_pressure;BME280_temperature;BME280_humidity;BME280_pressure;Samples;Min_cycle;Max_cycle;Signal;HPM_P1;HPM_P2
2020/12/22 00:01:52;;;;;;;36.23;17.00;;;;;;;2.51;81.44;99315.70;261504;1101;23417;-74
2020/12/22 00:06:58;;;;;;;30.73;15.53;;;;;;;2.65;81.32;99315.55;261474;1101;26453;-76
2020/12/22 00:12:00;;;;;;;32.57;16.90;;;;;;;2.71;81.65;99294.31;261629;1101;23467;-75
2020/12/22 00:17:04;;;;;;;32.20;15.67;;;;;;;2.82;81.74;99268.91;261392;1101;23391;-75
2020/12/22 00:22:06;;;;;;;33.40;16.37;;;;;;;2.95;81.39;99267.11;261514;1101;23389;-76
2020/12/22 00:27:08;;;;;;;30.30;15.20;;;;;;;2.98;81.37;99288.66;261602;1101;23318;-75
2020/12/22 00:32:11;;;;;;;27.80;14.10;;;;;;;2.93;81.25;99304.39;261614;1101;23431;-75
2020/12/22 00:37:13;;;;;;;24.23;13.07;;;;;;;2.96;81.76;99313.73;261532;1101;23425;-75
2020/12/22 00:42:15;;;;;;;24.30;13.30;;;;;;;3.01;81.35;99300.64;261524;1101;23651;-75
2020/12/22 00:47:18;;;;;;;21.13;11.70;;;;;;;3.06;81.33;99275.10;261513;1101;23419;-75
2020/12/22 00:52:20;;;;;;;26.07;14.67;;;;;;;3.12;81.55;99270.73;261546;1101;23535;-74
2020/12/22 00:57:22;;;;;;;26.07;13.60;;;;;;;3.24;81.25;99271.55;261474;1101;23357;-74
2020/12/22 01:02:41;;;;;;;27.37;14.90;;;;;;;3.29;80.97;99273.53;261526;1101;23319;-75
2020/12/22 01:07:43;;;;;;;26.30;12.80;;;;;;;3.30;81.18;99269.03;261501;1101;26577;-74
2020/12/22 01:12:45;;;;;;;28.30;13.85;;;;;;;3.27;80.68;99280.08;261663;1101;23353;-73
2020/12/22 01:17:47;;;;;;;30.93;15.47;;;;;;;3.29;81.13;99264.76;261556;1101;23400;-74
2020/12/22 01:22:50;;;;;;;30.73;16.40;;;;;;;3.31;81.19;99260.85;261676;1101;23362;-74
2020/12/22 01:27:52;;;;;;;29.93;16.33;;;;;;;3.31;81.18;99244.16;261473;1101;23635;-74
2020/12/22 01:32:54;;;;;;;30.95;15.85;;;;;;;3.25;80.71;99244.03;261616;1101;24187;-74
2020/12/22 01:37:57;;;;;;;36.60;18.00;;;;;;;3.12;80.17;99228.38;261576;1101;23543;-74
2020/12/22 01:42:59;;;;;;;40.07;21.43;;;;;;;3.01;80.88;99216.73;261485;1101;23415;-75
2020/12/22 01:48:02;;;;;;;35.03;16.80;;;;;;;2.97;80.96;99212.12;261601;1101;23356;-75
2020/12/22 01:53:03;;;;;;;39.57;19.80;;;;;;;2.90;80.77;99213.02;261515;1101;23385;-75
2020/12/22 01:58:05;;;;;;;34.27;16.40;;;;;;;2.95;81.06;99225.56;261529;1101;23452;-75
2020/12/22 02:03:08;;;;;;;37.57;19.20;;;;;;;2.97;81.23;99217.42;261501;1102;23817;-75
2020/12/22 02:08:11;;;;;;;37.67;18.97;;;;;;;3.00;81.22;99215.11;261665;1101;23419;-75
2020/12/22 02:13:13;;;;;;;32.70;16.63;;;;;;;3.04;81.09;99212.83;261627;1101;23361;-75
2020/12/22 02:18:15;;;;;;;31.43;16.10;;;;;;;3.04;81.08;99175.77;261501;1101;23365;-75
2020/12/22 02:23:17;;;;;;;26.13;14.07;;;;;;;3.12;81.07;99174.61;261641;1101;23325;-74
2020/12/22 02:28:19;;;;;;;26.57;14.23;;;;;;;3.07;81.16;99164.72;261485;1101;23357;-75
2020/12/22 02:33:22;;;;;;;28.93;14.40;;;;;;;3.02;81.06;99170.70;261551;1101;23358;-75
2020/12/22 02:38:24;;;;;;;30.10;16.40;;;;;;;3.01;80.84;99163.00;261419;1101;25000;-76
2020/12/22 02:43:26;;;;;;;33.23;16.80;;;;;;;3.09;81.24;99146.75;261460;1101;23425;-74
2020/12/22 02:48:28;;;;;;;34.27;18.10;;;;;;;3.12;80.99;99145.48;261418;1101;23329;-75
2020/12/22 02:53:30;;;;;;;31.70;16.57;;;;;;;3.10;81.10;99158.95;261447;1101;23464;-75
2020/12/22 02:58:32;;;;;;;38.10;18.13;;;;;;;2.99;80.26;99157.11;261543;1101;23423;-75
2020/12/22 03:03:34;;;;;;;34.33;16.27;;;;;;;2.94;80.71;99141.93;261623;1101;23365;-73
2020/12/22 03:08:36;;;;;;;33.07;18.00;;;;;;;2.97;81.02;99154.70;261748;1101;23411;-75
2020/12/22 03:13:42;;;;;;;30.23;16.10;;;;;;;2.96;80.81;99129.26;261552;1101;23492;-75
2020/12/22 03:18:44;;;;;;;26.47;14.43;;;;;;;3.00;81.35;99113.73;261430;1101;23389;-75
2020/12/22 03:23:46;;;;;;;30.93;16.13;;;;;;;2.99;81.08;99099.68;261461;1101;23517;-75
2020/12/22 03:28:48;;;;;;;30.97;15.73;;;;;;;3.01;80.74;99088.89;261722;1101;23417;-75
2020/12/22 03:33:51;;;;;;;27.40;14.03;;;;;;;2.98;80.79;99097.27;261661;1101;23347;-75
2020/12/22 03:38:53;;;;;;;22.33;13.07;;;;;;;2.89;80.35;99079.09;261643;1101;23496;-75
2020/12/22 03:43:56;;;;;;;20.00;11.60;;;;;;;2.85;81.03;99074.49;261485;1101;23959;-75
2020/12/22 03:48:59;;;;;;;24.30;11.90;;;;;;;2.79;80.47;99070.92;261386;1101;23412;-74
2020/12/22 03:54:00;;;;;;;26.93;13.53;;;;;;;2.68;80.27;99074.38;261629;1101;23365;-74
2020/12/22 03:59:03;;;;;;;24.50;12.87;;;;;;;2.65;80.58;99057.11;261433;1101;23401;-75
2020/12/22 04:04:05;;;;;;;21.63;12.80;;;;;;;2.70;80.25;99069.64;261556;1101;23368;-75
2020/12/22 04:09:07;;;;;;;25.07;12.30;;;;;;;2.70;80.94;99048.48;261432;1102;23347;-76
2020/12/22 04:14:10;;;;;;;21.53;11.60;;;;;;;2.71;80.30;99050.09;261428;1101;23561;-75
2020/12/22 04:19:14;;;;;;;22.60;12.30;;;;;;;2.70;80.55;99051.13;261765;1102;23503;-75
2020/12/22 04:24:16;;;;;;;17.83;9.83;;;;;;;2.70;80.74;99051.13;261663;1101;23332;-76
2020/12/22 04:29:18;;;;;;;15.17;9.37;;;;;;;2.70;80.41;99036.08;261514;1101;23410;-75
2020/12/22 04:34:21;;;;;;;16.30;9.45;;;;;;;2.73;81.21;99026.88;261481;1101;23353;-75
2020/12/22 04:39:23;;;;;;;14.13;7.57;;;;;;;2.74;80.67;99023.18;261656;1101;23383;-74
2020/12/22 04:44:25;;;;;;;16.70;8.37;;;;;;;2.74;80.96;99024.00;261403;1101;23421;-75
2020/12/22 04:49:31;;;;;;;13.27;8.27;;;;;;;2.77;81.02;99016.63;261485;1101;23768;-75
2020/12/22 04:54:33;;;;;;;16.97;8.93;;;;;;;2.83;81.32;99019.16;261541;1101;26433;-77
2020/12/22 04:59:43;;;;;;;13.43;8.27;;;;;;;2.89;81.32;99010.28;261462;1101;23347;-72
2020/12/22 05:04:45;;;;;;;13.30;7.95;;;;;;;2.95;81.12;99019.13;261525;1101;23355;-74
2020/12/22 05:09:48;;;;;;;15.27;8.97;;;;;;;3.04;81.44;99020.40;261562;1102;23895;-74
2020/12/22 05:14:52;;;;;;;11.95;7.55;;;;;;;3.13;81.44;99012.89;261492;1101;23417;-75
2020/12/22 05:19:55;;;;;;;15.90;8.20;;;;;;;3.19;81.50;99004.03;261498;1101;23456;-75
2020/12/22 05:24:58;;;;;;;14.67;8.73;;;;;;;3.30;81.45;98999.73;261425;1101;23333;-76
2020/12/22 05:30:04;;;;;;;14.93;8.03;;;;;;;3.35;81.17;98986.59;261591;1101;23553;-75
2020/12/22 05:35:06;;;;;;;14.10;7.77;;;;;;;3.39;80.93;98981.64;261473;1102;23369;-73
2020/12/22 05:40:10;;;;;;;14.35;8.50;;;;;;;3.41;80.92;98963.66;261424;1101;23404;-75
2020/12/22 05:45:12;;;;;;;12.97;8.10;;;;;;;3.43;80.79;98956.30;261576;1101;23544;-76
2020/12/22 05:50:14;;;;;;;14.63;8.77;;;;;;;3.45;80.92;98938.31;261540;1101;24930;-75
2020/12/22 05:55:34;;;;;;;15.20;8.45;;;;;;;3.42;80.70;98928.98;261467;1101;23417;-76
2020/12/22 06:00:41;;;;;;;15.30;8.28;;;;;;;3.41;80.65;98937.17;261560;1101;23419;-75
2020/12/22 06:05:45;;;;;;;18.05;9.55;;;;;;;3.41;80.65;98942.47;261808;1101;23363;-76
2020/12/22 06:10:47;;;;;;;14.73;8.67;;;;;;;3.42;80.63;98930.84;261547;1101;23913;-74
2020/12/22 06:15:49;;;;;;;15.55;8.90;;;;;;;3.43;80.42;98924.52;261552;1101;23355;-75
2020/12/22 06:20:51;;;;;;;15.57;8.97;;;;;;;3.43;80.83;98922.66;261600;1101;23365;-74
2020/12/22 06:26:03;;;;;;;16.73;8.63;;;;;;;3.43;80.71;98924.52;261535;1101;23408;-75
2020/12/22 06:31:33;;;;;;;17.30;9.87;;;;;;;3.42;80.69;98921.05;261506;1101;23531;-74
2020/12/22 06:36:56;;;;;;;16.07;9.38;;;;;;;3.47;80.71;98922.18;261674;1102;23674;-75
2020/12/22 06:41:58;;;;;;;13.83;8.77;;;;;;;3.50;80.79;98903.98;261511;1101;23429;-75
2020/12/22 06:47:01;;;;;;;19.13;10.23;;;;;;;3.52;80.49;98909.03;261612;1096;23420;-75
2020/12/22 06:52:33;;;;;;;17.67;9.20;;;;;;;3.56;80.25;98907.52;262000;1101;23371;-74
2020/12/22 06:57:43;;;;;;;22.03;11.43;;;;;;;3.62;80.30;98909.20;261973;1102;23495;-74
2020/12/22 07:02:45;;;;;;;19.70;10.27;;;;;;;3.69;80.13;98893.16;262568;1101;23352;-75
2020/12/22 07:07:56;;;;;;;20.97;11.07;;;;;;;3.75;80.37;98881.61;262409;1101;23427;-77
2020/12/22 07:12:59;;;;;;;20.00;11.22;;;;;;;3.82;79.93;98866.35;262112;1102;23370;-76
2020/12/22 07:18:33;;;;;;;24.03;12.87;;;;;;;3.88;80.14;98862.72;261942;1101;23365;-77
2020/12/22 07:23:36;;;;;;;22.67;12.50;;;;;;;3.95;79.90;98857.27;262310;1101;23355;-76
2020/12/22 07:28:40;;;;;;;28.00;15.13;;;;;;;3.99;79.67;98839.01;261874;1101;23732;-75
2020/12/22 07:33:46;;;;;;;24.57;12.93;;;;;;;4.02;79.66;98831.38;261976;1102;25005;-76
2020/12/22 07:38:48;;;;;;;26.23;14.13;;;;;;;4.06;79.18;98826.41;262094;1102;26385;-76
2020/12/22 07:44:08;;;;;;;23.70;13.37;;;;;;;4.14;79.61;98831.30;261891;1102;24029;-76
2020/12/22 07:49:12;;;;;;;28.10;12.60;;;;;;;4.18;79.52;98829.73;261823;1101;23357;-75
2020/12/22 07:54:15;;;;;;;21.63;13.07;;;;;;;4.22;79.20;98817.59;262078;1102;23561;-75
2020/12/22 07:59:18;;;;;;;23.67;12.67;;;;;;;4.18;79.49;98797.13;262061;1101;23392;-77
2020/12/22 08:04:22;;;;;;;26.80;13.57;;;;;;;4.12;79.66;98804.21;262005;1101;23379;-74
2020/12/22 08:09:33;;;;;;;29.43;14.93;;;;;;;4.09;79.87;98794.89;261929;1101;28962;-76
2020/12/22 08:14:40;;;;;;;33.27;16.73;;;;;;;4.11;80.19;98784.04;261993;1101;23458;-75
2020/12/22 08:19:43;;;;;;;28.70;15.53;;;;;;;4.18;79.64;98774.05;262017;1101;23486;-76
2020/12/22 08:24:46;;;;;;;33.47;17.10;;;;;;;4.24;79.64;98759.00;262212;1101;23705;-76
2020/12/22 08:29:48;;;;;;;32.00;16.73;;;;;;;4.27;80.17;98775.23;261572;1101;23937;-76
2020/12/22 08:34:53;;;;;;;30.20;17.07;;;;;;;4.35;79.37;98779.32;261912;1101;24635;-76
2020/12/22 08:39:56;;;;;;;24.97;12.37;;;;;;;4.46;79.51;98782.88;262059;1101;28319;-76
2020/12/22 08:44:58;;;;;;;20.57;11.13;;;;;;;4.54;79.46;98785.09;262323;1101;23205;-75
2020/12/22 08:50:09;;;;;;;21.47;12.37;;;;;;;4.60;79.50;98762.89;261962;1101;23401;-77
2020/12/22 08:55:12;;;;;;;21.77;12.13;;;;;;;4.56;79.84;98761.78;261896;1101;23371;-75
2020/12/22 09:00:16;;;;;;;21.35;11.75;;;;;;;4.51;80.08;98768.89;261958;1101;23426;-76
2020/12/22 09:05:19;;;;;;;22.03;13.33;;;;;;;4.48;80.57;98790.58;262264;1101;23402;-75
2020/12/22 09:10:24;;;;;;;20.63;11.40;;;;;;;4.41;80.77;98766.92;262051;1101;26303;-75
2020/12/22 09:15:26;;;;;;;19.07;11.63;;;;;;;4.41;81.15;98769.57;263721;1101;23421;-77
2020/12/22 09:20:29;;;;;;;24.33;12.30;;;;;;;4.40;81.53;98738.78;262240;1097;23399;-76
2020/12/22 09:25:31;;;;;;;21.40;13.33;;;;;;;4.41;81.42;98746.49;262123;1101;23380;-75
2020/12/22 09:30:36;;;;;;;22.95;12.90;;;;;;;4.41;81.87;98772.22;261725;1101;23812;-76
2020/12/22 09:35:38;;;;;;;24.10;12.97;;;;;;;4.37;82.29;98760.50;262022;1093;23438;-75
2020/12/22 09:40:41;;;;;;;21.63;12.13;;;;;;;4.37;81.81;98748.03;267710;1101;23417;-75
2020/12/22 09:45:43;;;;;;;19.40;10.63;;;;;;;4.44;82.00;98708.85;268886;1101;23290;-74
2020/12/22 09:50:46;;;;;;;17.93;10.90;;;;;;;4.43;82.51;98714.41;267667;1101;24444;-74
2020/12/22 09:55:48;;;;;;;17.23;10.83;;;;;;;4.41;82.62;98703.26;261678;1101;23527;-73
2020/12/22 10:00:58;;;;;;;17.27;10.60;;;;;;;4.38;82.90;98711.70;262504;1101;23651;-74
2020/12/22 10:06:00;;;;;;;20.67;11.40;;;;;;;4.35;82.95;98699.76;262724;1101;23558;-74
2020/12/22 10:11:03;;;;;;;22.07;13.00;;;;;;;4.32;83.28;98686.17;262531;1101;23457;-74
2020/12/22 10:16:09;;;;;;;16.17;10.47;;;;;;;4.27;82.96;98693.03;262417;1102;23392;-73
2020/12/22 10:21:13;;;;;;;17.13;10.07;;;;;;;4.31;83.88;98680.09;261828;1096;24359;-74
2020/12/22 10:26:19;;;;;;;17.40;9.97;;;;;;;4.29;83.50;98674.21;261763;1101;23420;-75
2020/12/22 10:31:25;;;;;;;18.27;11.00;;;;;;;4.31;83.27;98681.92;263308;1101;23402;-73
2020/12/22 10:36:27;;;;;;;17.90;10.77;;;;;;;4.31;83.84;98689.87;262706;1101;23391;-73
2020/12/22 10:41:29;;;;;;;18.47;11.00;;;;;;;4.27;83.82;98685.08;262426;1101;23454;-73
2020/12/22 10:46:32;;;;;;;18.13;9.90;;;;;;;4.27;84.42;98673.67;261982;1101;23356;-73
2020/12/22 10:51:34;;;;;;;17.33;9.33;;;;;;;4.24;84.38;98663.55;262016;1101;23347;-73
2020/12/22 10:56:36;;;;;;;14.50;8.93;;;;;;;4.26;85.00;98633.08;261844;1101;23546;-72
2020/12/22 11:01:39;;;;;;;16.47;9.50;;;;;;;4.29;84.86;98645.05;261752;1101;23925;-72
2020/12/22 11:07:00;;;;;;;15.65;8.80;;;;;;;4.33;84.63;98632.09;262541;1101;23356;-74
2020/12/22 11:12:02;;;;;;;17.80;10.00;;;;;;;4.42;84.94;98617.31;262044;1101;23389;-75
2020/12/22 11:17:05;;;;;;;15.40;9.60;;;;;;;4.49;84.56;98622.42;261952;1102;23475;-75
2020/12/22 11:22:07;;;;;;;20.73;10.43;;;;;;;4.58;84.37;98620.91;261873;1101;23388;-73
2020/12/22 11:27:12;;;;;;;19.13;11.20;;;;;;;4.63;84.54;98624.41;262151;1101;23402;-75
2020/12/22 11:32:14;;;;;;;15.90;9.07;;;;;;;4.69;84.56;98629.77;262184;1101;23365;-74
2020/12/22 11:37:16;;;;;;;17.67;9.50;;;;;;;4.73;84.52;98629.00;262029;1101;23357;-74
2020/12/22 11:42:19;;;;;;;17.33;10.57;;;;;;;4.79;84.49;98627.97;261897;1101;23417;-74
2020/12/22 11:47:21;;;;;;;16.50;9.37;;;;;;;4.86;84.68;98635.73;262083;1101;23354;-72
2020/12/22 11:52:23;;;;;;;14.83;8.40;;;;;;;4.87;84.55;98624.06;261813;1102;23362;-74
2020/12/22 11:57:25;;;;;;;13.87;8.70;;;;;;;4.88;84.35;98625.67;261878;1093;23358;-73
2020/12/22 12:02:27;;;;;;;14.53;7.70;;;;;;;4.85;84.68;98617.41;261972;1101;23502;-73
2020/12/22 12:07:29;;;;;;;13.57;7.53;;;;;;;4.77;86.38;98616.01;261888;1101;23622;-73
2020/12/22 12:12:31;;;;;;;15.90;8.83;;;;;;;4.68;85.38;98605.07;261864;1101;23709;-75
2020/12/22 12:17:33;;;;;;;16.40;8.67;;;;;;;4.60;86.31;98598.39;261868;1101;23522;-75
2020/12/22 12:22:35;;;;;;;15.57;7.90;;;;;;;4.49;87.72;98587.94;261792;1101;23418;-76
2020/12/22 12:27:37;;;;;;;15.07;9.07;;;;;;;4.42;87.13;98574.88;261955;1101;23891;-75
2020/12/22 12:32:39;;;;;;;13.03;7.90;;;;;;;4.41;87.60;98573.30;262313;1101;23425;-76
2020/12/22 12:37:41;;;;;;;16.67;8.43;;;;;;;4.48;87.61;98573.06;261930;1101;23392;-75
2020/12/22 12:42:44;;;;;;;12.00;6.70;;;;;;;4.54;87.98;98562.24;262052;1101;23549;-74
2020/12/22 12:47:46;;;;;;;12.40;7.33;;;;;;;4.60;87.67;98563.90;262234;1101;27957;-74
2020/12/22 12:52:48;;;;;;;12.43;6.50;;;;;;;4.65;87.64;98572.95;262343;1096;23395;-75
2020/12/22 12:58:04;;;;;;;10.20;6.40;;;;;;;4.67;87.49;98561.00;267846;1101;26823;-75
2020/12/22 13:03:07;;;;;;;11.20;6.90;;;;;;;4.69;87.77;98558.13;262277;1101;23414;-74
2020/12/22 13:08:09;;;;;;;12.37;7.07;;;;;;;4.75;87.70;98562.40;262084;1101;23408;-75
2020/12/22 13:13:11;;;;;;;10.00;5.60;;;;;;;4.81;87.80;98558.72;262376;1101;23367;-74
2020/12/22 13:18:13;;;;;;;9.37;6.30;;;;;;;4.89;86.97;98560.11;262535;1101;23792;-74
2020/12/22 13:23:17;;;;;;;10.07;6.13;;;;;;;4.90;87.52;98559.06;262422;1101;23417;-74
2020/12/22 13:28:19;;;;;;;9.20;5.60;;;;;;;4.89;86.97;98547.63;262037;1101;26073;-75
2020/12/22 13:33:21;;;;;;;7.53;5.27;;;;;;;4.87;87.22;98541.78;261913;1101;23364;-75
2020/12/22 13:38:23;;;;;;;8.77;5.30;;;;;;;4.88;86.87;98561.15;262071;1101;23489;-75
2020/12/22 13:43:27;;;;;;;8.00;5.00;;;;;;;4.87;86.79;98555.05;261979;1101;24178;-74
2020/12/22 13:48:29;;;;;;;8.30;5.07;;;;;;;4.88;87.00;98561.15;262076;1101;23556;-74
2020/12/22 13:53:32;;;;;;;8.97;4.70;;;;;;;4.87;86.81;98557.70;261992;1101;23837;-74
2020/12/22 13:58:34;;;;;;;8.63;4.50;;;;;;;4.83;86.98;98543.34;262199;1101;23347;-73
2020/12/22 14:03:37;;;;;;;7.67;5.10;;;;;;;4.85;86.83;98557.15;262110;1101;23427;-76
2020/12/22 14:08:41;;;;;;;6.83;4.60;;;;;;;4.85;86.81;98551.05;262528;1101;26858;-74
2020/12/22 14:13:45;;;;;;;9.37;4.80;;;;;;;4.82;86.60;98557.67;262105;1101;23353;-75
2020/12/22 14:18:49;;;;;;;9.05;5.10;;;;;;;4.83;87.33;98559.27;262225;1101;23405;-74
2020/12/22 14:23:52;;;;;;;7.50;5.00;;;;;;;4.83;87.18;98553.97;262281;1101;23384;-75
2020/12/22 14:28:54;;;;;;;7.63;5.40;;;;;;;4.85;86.97;98561.67;262106;1101;23789;-74
2020/12/22 14:33:56;;;;;;;8.33;5.40;;;;;;;4.85;87.12;98557.15;262113;1102;23388;-74
2020/12/22 14:38:58;;;;;;;9.67;5.53;;;;;;;4.89;87.07;98560.11;262204;1101;23901;-75
2020/12/22 14:44:00;;;;;;;10.47;6.30;;;;;;;4.88;86.71;98554.00;262296;1101;23425;-74
2020/12/22 14:49:02;;;;;;;11.65;6.40;;;;;;;4.85;87.61;98551.05;262079;1101;24169;-73
2020/12/22 14:54:04;;;;;;;8.70;6.40;;;;;;;4.83;87.94;98551.31;262390;1101;23316;-74
2020/12/22 14:59:07;;;;;;;11.07;7.20;;;;;;;4.84;87.59;98560.06;262497;1101;23479;-74
2020/12/22 15:04:09;;;;;;;10.23;6.27;;;;;;;4.84;87.46;98563.53;262153;1101;23955;-76
2020/12/22 15:09:11;;;;;;;11.40;6.87;;;;;;;4.83;88.00;98553.97;262667;1101;23398;-75
2020/12/22 15:14:13;;;;;;;10.47;6.20;;;;;;;4.88;87.89;98551.35;262087;1101;23365;-75
2020/12/22 15:19:16;;;;;;;12.45;6.95;;;;;;;4.88;87.25;98548.70;262042;1101;23820;-75
2020/12/22 15:24:18;;;;;;;10.37;6.20;;;;;;;4.93;88.14;98545.27;261932;1096;23420;-75
2020/12/22 15:29:20;;;;;;;9.40;6.13;;;;;;;4.97;88.00;98568.37;261636;1101;23556;-75
2020/12/22 15:34:25;;;;;;;11.53;6.80;;;;;;;5.01;88.56;98565.20;261791;1101;23808;-76
2020/12/22 15:39:27;;;;;;;9.83;6.50;;;;;;;5.03;88.18;98549.83;261944;1101;26584;-75
2020/12/22 15:44:29;;;;;;;13.03;7.07;;;;;;;5.06;87.99;98551.97;261611;1101;23433;-76
2020/12/22 15:49:31;;;;;;;10.37;7.00;;;;;;;5.10;88.25;98556.50;261740;1101;23421;-75
2020/12/22 15:54:33;;;;;;;12.97;7.40;;;;;;;5.11;88.33;98567.94;261899;1101;23811;-76
2020/12/22 15:59:35;;;;;;;11.43;6.73;;;;;;;5.14;87.96;98565.55;261898;1101;23365;-76
2020/12/22 16:04:37;;;;;;;13.25;7.80;;;;;;;5.18;88.30;98562.41;261990;1101;23417;-75
2020/12/22 16:09:40;;;;;;;10.80;7.10;;;;;;;5.18;87.67;98565.06;261720;1101;23524;-76
2020/12/22 16:14:42;;;;;;;13.13;6.77;;;;;;;5.17;88.43;98561.59;261559;1101;23920;-76
2020/12/22 16:19:45;;;;;;;14.67;8.47;;;;;;;5.15;88.35;98558.41;261670;1102;23370;-75
2020/12/22 16:24:47;;;;;;;11.60;7.00;;;;;;;5.17;88.28;98558.93;261716;1101;23643;-76
2020/12/22 16:29:49;;;;;;;12.70;7.47;;;;;;;5.23;88.19;98549.12;261609;1101;23399;-75
2020/12/22 16:34:51;;;;;;;12.83;7.20;;;;;;;5.28;88.37;98547.30;261669;1101;23357;-75
2020/12/22 16:39:54;;;;;;;12.43;7.70;;;;;;;5.31;88.35;98552.08;261862;1101;23822;-76
2020/12/22 16:44:57;;;;;;;11.87;7.40;;;;;;;5.35;88.11;98551.59;261806;1101;23364;-77
2020/12/22 16:49:59;;;;;;;13.63;7.60;;;;;;;5.37;87.98;98560.09;261858;1102;23558;-75
2020/12/22 16:55:01;;;;;;;13.05;8.00;;;;;;;5.39;88.19;98553.45;261634;1101;24707;-76
2020/12/22 17:00:06;;;;;;;12.50;8.25;;;;;;;5.44;88.40;98563.30;261776;1101;23417;-75
2020/12/22 17:05:12;;;;;;;13.83;7.97;;;;;;;5.51;88.62;98569.17;262040;1101;23907;-75
2020/12/22 17:10:14;;;;;;;14.13;7.60;;;;;;;5.57;88.59;98572.64;261728;1101;23353;-76
2020/12/22 17:15:19;;;;;;;12.57;6.70;;;;;;;5.59;88.30;98558.05;261928;1101;23676;-76
2020/12/22 17:20:21;;;;;;;11.63;6.83;;;;;;;5.59;88.01;98565.23;261857;1101;23407;-76
2020/12/22 17:25:23;;;;;;;14.57;7.57;;;;;;;5.58;88.66;98574.25;261558;1102;23498;-76
2020/12/22 17:30:25;;;;;;;14.47;8.63;;;;;;;5.56;88.21;98569.20;261768;1101;23429;-75
2020/12/22 17:35:27;;;;;;;14.23;8.07;;;;;;;5.60;88.62;98577.46;261518;1101;23405;-76
2020/12/22 17:40:29;;;;;;;12.53;7.57;;;;;;;5.64;88.30;98597.14;261688;1101;23404;-75
2020/12/22 17:45:48;;;;;;;11.67;6.83;;;;;;;5.67;88.34;98588.64;261737;1101;23417;-75
2020/12/22 17:50:50;;;;;;;11.67;7.63;;;;;;;5.67;88.83;98591.30;261626;1101;23414;-75
2020/12/22 17:55:52;;;;;;;11.97;7.33;;;;;;;5.63;88.03;98587.56;261704;1101;23409;-75
2020/12/22 18:00:54;;;;;;;14.53;8.27;;;;;;;5.62;88.27;98585.95;261712;1101;23440;-76
2020/12/22 18:05:56;;;;;;;13.17;8.37;;;;;;;5.57;88.56;98586.75;261750;1101;23466;-76
2020/12/22 18:10:58;;;;;;;15.67;8.37;;;;;;;5.56;88.70;98590.45;261639;1101;23386;-76
2020/12/22 18:16:00;;;;;;;15.50;9.40;;;;;;;5.59;88.61;98591.80;261498;1101;23363;-77
2020/12/22 18:21:03;;;;;;;15.90;9.37;;;;;;;5.60;88.51;98591.53;261567;1101;23571;-75
2020/12/22 18:26:08;;;;;;;14.30;8.90;;;;;;;5.62;89.06;98583.30;261878;1101;23677;-76
2020/12/22 18:31:11;;;;;;;13.40;9.10;;;;;;;5.63;88.47;98585.70;261979;1101;23425;-76
2020/12/22 18:36:14;;;;;;;15.45;8.60;;;;;;;5.69;88.66;98593.70;261751;1102;23351;-76
2020/12/22 18:41:19;;;;;;;14.83;9.20;;;;;;;5.71;88.73;98592.38;262018;1102;23402;-75
2020/12/22 18:46:25;;;;;;;17.00;9.50;;;;;;;5.75;89.10;98585.48;261669;1101;23421;-76
2020/12/22 18:51:27;;;;;;;15.25;9.20;;;;;;;5.80;88.99;98582.03;261575;1101;23367;-76
2020/12/22 18:56:29;;;;;;;16.20;9.10;;;;;;;5.84;88.70;98580.45;262635;1101;23416;-76
2020/12/22 19:01:31;;;;;;;17.60;10.30;;;;;;;5.91;88.39;98593.51;261667;1101;23556;-76
2020/12/22 19:06:34;;;;;;;14.40;9.10;;;;;;;5.93;88.79;98592.19;261748;1101;24958;-77
2020/12/22 19:11:38;;;;;;;14.17;9.13;;;;;;;5.94;88.51;98593.77;261681;1101;23578;-77
2020/12/22 19:16:40;;;;;;;13.57;7.50;;;;;;;5.93;88.10;98594.84;261665;1101;23429;-76
2020/12/22 19:21:45;;;;;;;16.33;9.50;;;;;;;5.97;88.14;98603.08;261917;1101;23555;-75
2020/12/22 19:26:52;;;;;;;15.33;8.97;;;;;;;5.98;88.07;98616.14;262037;1101;27071;-76
2020/12/22 19:31:56;;;;;;;15.00;9.13;;;;;;;5.99;88.27;98627.59;261663;1101;26852;-75
2020/12/22 19:36:58;;;;;;;16.10;9.03;;;;;;;5.96;87.75;98631.55;261920;1101;26833;-76
2020/12/22 19:42:00;;;;;;;16.67;9.27;;;;;;;5.94;87.46;98633.64;261346;1101;23951;-77
2020/12/22 19:47:02;;;;;;;17.43;10.17;;;;;;;5.90;87.96;98635.23;261789;1101;23365;-76
2020/12/22 19:52:05;;;;;;;17.07;9.33;;;;;;;5.89;87.87;98635.49;261788;1101;23353;-76
2020/12/22 19:57:07;;;;;;;17.45;9.70;;;;;;;5.89;87.72;98635.49;261910;1101;23529;-76
2020/12/22 20:02:10;;;;;;;13.07;8.33;;;;;;;5.86;87.72;98631.48;261746;1101;23420;-76
2020/12/22 20:07:12;;;;;;;16.17;9.80;;;;;;;5.82;87.87;98628.57;261906;1101;23410;-77
2020/12/22 20:12:14;;;;;;;15.47;9.60;;;;;;;5.83;88.09;98637.33;261746;1101;23476;-76
2020/12/22 20:17:16;;;;;;;18.03;10.93;;;;;;;5.82;88.12;98635.75;261657;1101;23414;-75
2020/12/22 20:22:19;;;;;;;16.55;9.85;;;;;;;5.80;88.36;98643.17;261708;1101;23410;-76
2020/12/22 20:27:21;;;;;;;15.97;10.00;;;;;;;5.78;88.53;98638.13;261486;1101;23419;-75
2020/12/22 20:32:24;;;;;;;22.20;11.65;;;;;;;5.78;88.52;98642.65;261672;1101;23336;-75
2020/12/22 20:37:26;;;;;;;18.83;10.63;;;;;;;5.80;88.84;98659.13;261647;1101;23518;-75
2020/12/22 20:42:28;;;;;;;22.37;11.83;;;;;;;5.81;88.25;98645.57;261670;1101;23347;-75
2020/12/22 20:47:30;;;;;;;20.50;11.20;;;;;;;5.82;88.58;98657.02;261833;1101;23929;-76
2020/12/22 20:52:32;;;;;;;21.07;11.30;;;;;;;5.83;89.51;98646.13;262022;1101;23407;-75
2020/12/22 20:57:34;;;;;;;20.43;11.43;;;;;;;5.84;89.32;98641.59;261819;1101;23388;-76
2020/12/22 21:02:36;;;;;;;21.50;13.25;;;;;;;5.88;88.99;98637.36;261653;1101;23517;-75
2020/12/22 21:07:38;;;;;;;21.63;11.90;;;;;;;5.92;89.56;98638.44;261632;1101;23365;-75
2020/12/22 21:12:41;;;;;;;17.37;10.50;;;;;;;5.96;89.33;98633.38;261679;1101;23365;-75
2020/12/22 21:17:43;;;;;;;17.80;11.33;;;;;;;5.99;89.00;98633.70;261608;1102;23408;-76
2020/12/22 21:22:45;;;;;;;19.30;11.95;;;;;;;6.01;88.87;98643.28;261836;1101;23411;-76
2020/12/22 21:27:47;;;;;;;18.80;11.20;;;;;;;6.00;89.86;98653.11;261635;1101;23352;-77
2020/12/22 21:32:50;;;;;;;17.60;10.55;;;;;;;6.01;90.05;98641.41;261630;1101;23357;-76
2020/12/22 21:37:52;;;;;;;21.73;11.73;;;;;;;6.00;89.96;98631.83;262001;1101;26510;-76
2020/12/22 21:42:54;;;;;;;19.27;10.83;;;;;;;5.98;89.62;98634.75;261699;1101;23430;-75
2020/12/22 21:47:57;;;;;;;15.27;9.13;;;;;;;5.96;89.64;98633.38;261696;1102;23546;-76
2020/12/22 21:52:59;;;;;;;21.65;10.90;;;;;;;5.94;89.52;98633.64;261697;1099;24017;-76
2020/12/22 21:58:01;;;;;;;19.95;10.60;;;;;;;5.90;90.08;98629.91;261754;1101;23464;-76
2020/12/22 22:03:03;;;;;;;22.65;12.80;;;;;;;5.87;90.33;98635.75;261710;1101;23679;-76
2020/12/22 22:08:06;;;;;;;21.40;11.63;;;;;;;5.90;90.11;98635.23;261648;1101;23353;-76
2020/12/22 22:13:09;;;;;;;21.10;11.17;;;;;;;5.97;90.53;98633.18;261743;1101;23590;-76
2020/12/22 22:18:10;;;;;;;19.80;11.47;;;;;;;6.02;89.90;98636.91;261477;1102;23357;-76
2020/12/22 22:23:13;;;;;;;20.63;10.87;;;;;;;6.02;90.34;98637.70;261519;1101;23359;-77
2020/12/22 22:28:15;;;;;;;18.00;10.00;;;;;;;5.97;90.15;98635.84;261519;1102;23358;-76
2020/12/22 22:33:17;;;;;;;18.07;10.60;;;;;;;5.96;89.91;98641.36;261411;1101;23495;-76
2020/12/22 22:38:19;;;;;;;18.57;9.97;;;;;;;5.96;89.64;98642.17;261595;1102;23408;-76
2020/12/22 22:43:21;;;;;;;15.20;9.05;;;;;;;5.96;90.25;98639.52;261556;1101;23910;-76
2020/12/22 22:48:25;;;;;;;14.10;8.80;;;;;;;6.01;89.93;98641.41;261452;1102;23472;-76
2020/12/22 22:53:27;;;;;;;13.93;8.37;;;;;;;6.09;90.21;98642.78;261513;1101;23552;-76
2020/12/22 22:58:29;;;;;;;17.07;9.23;;;;;;;6.16;89.75;98632.69;261470;1101;23354;-75
2020/12/22 23:03:31;;;;;;;19.05;11.00;;;;;;;6.22;89.82;98626.31;261584;1101;27068;-76
2020/12/22 23:08:34;;;;;;;19.20;10.70;;;;;;;6.24;90.01;98629.52;261598;1101;23489;-76
2020/12/22 23:13:37;;;;;;;22.13;12.17;;;;;;;6.19;89.87;98621.52;261213;1101;23408;-75
2020/12/22 23:18:41;;;;;;;21.73;11.97;;;;;;;6.19;89.27;98615.41;261548;1101;23517;-76
2020/12/22 23:23:48;;;;;;;21.73;11.57;;;;;;;6.23;89.97;98613.83;261401;1101;23411;-76